createdAt,value
2018-07-16T00:01:00.696Z,22.40
2018-07-16T00:02:37.879Z,22.70
2018-07-16T00:04:17.310Z,22.50
2018-07-16T00:05:53.859Z,22.40
2018-07-16T00:07:30.329Z,22.40
2018-07-16T00:09:06.843Z,22.40
2018-07-16T00:10:44.187Z,22.50
2018-07-16T00:12:20.599Z,22.40
2018-07-16T00:13:57.682Z,22.40
2018-07-16T00:17:11.275Z,22.60
2018-07-16T00:18:48.953Z,22.50
2018-07-16T00:20:26.152Z,22.50
2018-07-16T00:22:02.492Z,22.60
2018-07-16T00:23:39.703Z,22.60
2018-07-16T00:25:16.512Z,22.60
2018-07-16T00:26:53.794Z,22.40
2018-07-16T00:28:30.562Z,22.30
2018-07-16T00:30:08.214Z,22.40
2018-07-16T00:31:44.810Z,22.40
2018-07-16T00:33:21.289Z,22.70
2018-07-16T00:34:57.850Z,22.90
2018-07-16T00:36:34.471Z,23.20
2018-07-16T00:38:11.316Z,23.30
2018-07-16T00:39:48.129Z,23.50
2018-07-16T00:41:25.198Z,23.50
2018-07-16T00:43:03.967Z,23.40
2018-07-16T00:46:18.688Z,23.50
2018-07-16T00:47:55.543Z,23.40
2018-07-16T00:49:32.213Z,23.30
2018-07-16T00:51:09.129Z,23.40
2018-07-16T00:52:45.418Z,23.60
2018-07-16T00:54:21.796Z,23.70
2018-07-16T00:55:58.869Z,23.80
2018-07-16T00:57:35.536Z,23.70
2018-07-16T00:59:11.967Z,23.70
2018-07-16T01:00:48.652Z,23.70
2018-07-16T01:02:24.957Z,23.90
2018-07-16T01:04:01.311Z,23.80
2018-07-16T01:05:37.594Z,23.50
2018-07-16T01:07:14.293Z,23.40
2018-07-16T01:08:50.587Z,23.50
2018-07-16T01:10:27.019Z,23.30
2018-07-16T01:12:03.367Z,23.20
2018-07-16T01:13:40.231Z,23.10
2018-07-16T01:15:16.868Z,23.30
2018-07-16T01:16:53.188Z,23.50
2018-07-16T01:18:31.347Z,23.80
2018-07-16T01:20:17.936Z,23.60
2018-07-16T01:21:54.691Z,23.40
2018-07-16T01:23:31.160Z,23.20
2018-07-16T01:25:07.706Z,22.90
2018-07-16T01:26:44.799Z,22.90
2018-07-16T01:28:21.175Z,22.80
2018-07-16T01:31:36.355Z,22.90
2018-07-16T01:33:12.775Z,23.20
2018-07-16T01:34:49.059Z,23.30
2018-07-16T01:36:25.423Z,23.20
2018-07-16T01:38:02.175Z,23.00
2018-07-16T01:39:38.542Z,22.80
2018-07-16T01:41:14.856Z,22.90
2018-07-16T01:44:27.575Z,22.70
2018-07-16T01:46:04.432Z,22.70
2018-07-16T01:47:40.818Z,22.60
2018-07-16T01:50:54.012Z,22.40
2018-07-16T01:52:30.256Z,22.40
2018-07-16T01:54:06.764Z,22.60
2018-07-16T01:55:43.204Z,22.70
2018-07-16T01:57:20.904Z,22.40
2018-07-16T01:58:58.713Z,22.30
2018-07-16T02:00:42.835Z,22.40
2018-07-16T02:02:20.446Z,22.60
2018-07-16T02:03:57.490Z,22.80
2018-07-16T02:05:33.824Z,23.00
2018-07-16T02:07:11.817Z,22.90
2018-07-16T02:08:49.197Z,22.90
2018-07-16T02:10:26.236Z,22.60
2018-07-16T02:12:02.582Z,22.60
2018-07-16T02:13:42.540Z,22.80
2018-07-16T02:15:19.367Z,22.70
2018-07-16T02:16:57.631Z,22.80
2018-07-16T02:18:37.233Z,22.80
2018-07-16T02:20:33.099Z,23.10
2018-07-16T02:22:10.094Z,23.20
2018-07-16T02:23:46.333Z,23.00
2018-07-16T02:25:24.601Z,22.60
2018-07-16T02:27:01.466Z,22.40
2018-07-16T02:28:38.077Z,22.10
2018-07-16T02:30:22.209Z,21.90
2018-07-16T02:32:01.889Z,21.80
2018-07-16T02:33:54.132Z,21.60
2018-07-16T02:37:11.134Z,21.40
2018-07-16T02:38:47.633Z,21.50
2018-07-16T02:40:25.016Z,21.50
2018-07-16T02:42:07.254Z,21.50
2018-07-16T02:43:49.385Z,21.50
2018-07-16T02:47:14.659Z,21.40
2018-07-16T02:48:53.783Z,21.30
2018-07-16T02:50:30.411Z,21.30
2018-07-16T02:52:10.188Z,21.30
2018-07-16T02:54:06.835Z,21.30
2018-07-16T02:56:05.253Z,21.20
2018-07-16T02:57:50.952Z,21.00
2018-07-16T03:00:39.307Z,20.80
2018-07-16T03:02:30.215Z,20.40
2018-07-16T03:04:11.461Z,20.20
2018-07-16T03:05:48.973Z,20.10
2018-07-16T03:07:25.932Z,20.10
2018-07-16T03:09:03.203Z,20.30
2018-07-16T03:10:40.178Z,20.60
2018-07-16T03:12:16.640Z,20.90
2018-07-16T03:13:55.306Z,21.10
2018-07-16T03:15:37.771Z,21.10
2018-07-16T03:17:23.954Z,21.40
2018-07-16T03:19:00.234Z,21.40
2018-07-16T03:20:40.274Z,21.40
2018-07-16T03:22:18.507Z,21.20
2018-07-16T03:24:01.886Z,21.20
2018-07-16T03:29:06.963Z,21.00
2018-07-16T03:30:43.811Z,21.00
2018-07-16T03:32:20.221Z,20.70
2018-07-16T03:33:57.089Z,20.60
2018-07-16T03:35:33.985Z,20.70
2018-07-16T03:37:10.301Z,20.80
2018-07-16T03:38:46.680Z,20.70
2018-07-16T03:40:23.192Z,20.60
2018-07-16T03:42:08.598Z,20.60
2018-07-16T03:43:45.854Z,20.50
2018-07-16T03:45:22.619Z,20.40
2018-07-16T03:48:35.382Z,20.00
2018-07-16T03:50:12.191Z,19.90
2018-07-16T03:51:54.941Z,19.90
2018-07-16T03:53:32.027Z,20.10
2018-07-16T03:55:10.201Z,20.60
2018-07-16T03:56:46.555Z,21.00
2018-07-16T03:58:25.012Z,21.40
2018-07-16T04:00:05.792Z,21.60
2018-07-16T04:01:46.818Z,21.70
2018-07-16T04:03:23.105Z,21.70
2018-07-16T04:04:59.364Z,21.50
2018-07-16T04:06:36.499Z,21.50
2018-07-16T04:08:12.708Z,21.70
2018-07-16T04:09:48.998Z,21.60
2018-07-16T04:11:39.727Z,21.50
2018-07-16T04:13:28.213Z,21.40
2018-07-16T04:17:20.527Z,21.60
2018-07-16T04:18:57.304Z,21.90
2018-07-16T04:20:40.162Z,21.80
2018-07-16T04:22:25.405Z,21.80
2018-07-16T04:24:05.598Z,21.80
2018-07-16T04:25:44.261Z,21.90
2018-07-16T04:27:22.268Z,21.90
2018-07-16T04:29:24.129Z,22.10
2018-07-16T04:32:44.892Z,22.30
2018-07-16T04:34:21.897Z,22.40
2018-07-16T04:36:12.590Z,22.60
2018-07-16T04:38:08.660Z,22.70
2018-07-16T04:39:46.023Z,22.90
2018-07-16T04:41:23.037Z,23.20
2018-07-16T04:43:01.574Z,23.40
2018-07-16T04:44:37.851Z,23.70
2018-07-16T04:46:16.302Z,24.10
2018-07-16T04:47:52.988Z,24.20
2018-07-16T04:49:29.749Z,24.10
2018-07-16T04:51:06.231Z,23.70
2018-07-16T04:52:43.094Z,23.50
2018-07-16T04:54:20.457Z,23.40
2018-07-16T04:55:56.726Z,23.50
2018-07-16T04:57:33.000Z,24.00
2018-07-16T04:59:09.671Z,24.20
2018-07-16T05:00:46.191Z,24.00
2018-07-16T05:02:22.462Z,23.80
2018-07-16T05:03:58.841Z,23.90
2018-07-16T05:05:35.529Z,24.00
2018-07-16T05:07:11.800Z,24.00
2018-07-16T05:08:49.718Z,24.10
2018-07-16T05:10:26.047Z,24.40
2018-07-16T05:12:02.712Z,24.50
2018-07-16T05:13:39.072Z,24.70
2018-07-16T05:15:17.713Z,25.00
2018-07-16T05:16:54.748Z,25.70
2018-07-16T05:18:31.139Z,26.70
2018-07-16T05:20:07.305Z,27.50
2018-07-16T05:21:43.674Z,27.70
2018-07-16T05:23:19.985Z,27.80
2018-07-16T05:24:56.614Z,28.20
2018-07-16T05:26:32.987Z,28.50
2018-07-16T05:28:09.227Z,28.00
2018-07-16T05:29:45.626Z,28.50
2018-07-16T05:33:02.335Z,28.90
2018-07-16T05:34:38.669Z,28.40
2018-07-16T05:36:14.938Z,29.10
2018-07-16T05:37:51.630Z,29.80
2018-07-16T05:39:27.854Z,30.20
2018-07-16T05:41:05.420Z,30.30
2018-07-16T05:42:41.774Z,30.30
2018-07-16T05:44:18.337Z,30.30
2018-07-16T05:45:55.595Z,30.30
2018-07-16T05:47:31.863Z,30.20
2018-07-16T05:49:08.050Z,30.00
2018-07-16T05:50:44.333Z,29.10
2018-07-16T05:52:23.625Z,29.00
2018-07-16T05:53:59.866Z,29.00
2018-07-16T05:55:36.674Z,28.40
2018-07-16T05:57:13.614Z,28.20
2018-07-16T05:58:50.045Z,28.00
2018-07-16T06:00:27.979Z,27.70
2018-07-16T06:02:12.278Z,28.40
2018-07-16T06:03:48.895Z,29.10
2018-07-16T06:05:25.214Z,29.80
2018-07-16T06:07:01.501Z,30.30
2018-07-16T06:08:39.672Z,30.80
2018-07-16T06:10:16.399Z,30.70
2018-07-16T06:11:52.693Z,31.00
2018-07-16T06:13:29.028Z,31.20
2018-07-16T06:15:09.439Z,31.30
2018-07-16T06:16:48.738Z,31.30
2018-07-16T06:18:25.013Z,30.30
2018-07-16T06:20:04.567Z,30.50
2018-07-16T06:21:40.840Z,30.10
2018-07-16T06:23:17.146Z,29.50
2018-07-16T06:24:58.692Z,28.40
2018-07-16T06:26:35.484Z,27.70
2018-07-16T06:28:12.120Z,27.20
2018-07-16T06:29:49.475Z,27.20
2018-07-16T06:31:26.054Z,26.90
2018-07-16T06:33:02.368Z,27.80
2018-07-16T06:34:39.069Z,28.40
2018-07-16T06:36:15.419Z,29.00
2018-07-16T06:37:51.782Z,28.90
2018-07-16T06:39:28.178Z,27.70
2018-07-16T06:41:05.264Z,27.70
2018-07-16T06:42:42.422Z,27.70
2018-07-16T06:44:18.710Z,27.50
2018-07-16T06:45:56.142Z,28.30
2018-07-16T06:49:12.735Z,28.10
2018-07-16T06:50:50.520Z,27.90
2018-07-16T06:52:27.307Z,27.30
2018-07-16T06:54:03.971Z,27.70
2018-07-16T06:55:41.647Z,27.80
2018-07-16T06:57:19.070Z,27.50
2018-07-16T06:58:56.854Z,27.20
2018-07-16T07:00:34.041Z,26.80
2018-07-16T07:02:10.465Z,27.30
2018-07-16T07:03:46.715Z,27.90
2018-07-16T07:05:26.588Z,28.30
2018-07-16T07:07:03.546Z,29.00
2018-07-16T07:08:39.843Z,29.00
2018-07-16T07:10:17.253Z,29.40
2018-07-16T07:11:54.055Z,29.90
2018-07-16T07:13:30.970Z,29.10
2018-07-16T07:15:09.354Z,29.00
2018-07-16T07:16:47.949Z,29.30
2018-07-16T07:18:26.048Z,29.40
2018-07-16T07:20:03.767Z,29.70
2018-07-16T07:21:40.082Z,30.00
2018-07-16T07:23:16.870Z,30.00
2018-07-16T07:24:56.213Z,29.60
2018-07-16T07:26:33.338Z,29.10
2018-07-16T07:28:13.763Z,28.90
2018-07-16T07:29:50.045Z,29.00
2018-07-16T07:31:28.698Z,29.00
2018-07-16T07:33:07.517Z,28.40
2018-07-16T07:34:48.465Z,27.30
2018-07-16T07:36:26.546Z,26.90
2018-07-16T07:38:03.940Z,26.70
2018-07-16T07:39:40.300Z,26.70
2018-07-16T07:41:17.367Z,27.30
2018-07-16T07:42:54.829Z,28.30
2018-07-16T07:44:35.182Z,28.80
2018-07-16T07:46:15.350Z,29.10
2018-07-16T07:47:56.202Z,27.90
2018-07-16T07:49:32.934Z,28.00
2018-07-16T07:51:09.289Z,28.00
2018-07-16T07:52:46.263Z,27.30
2018-07-16T07:54:23.272Z,26.90
2018-07-16T07:55:59.620Z,27.30
2018-07-16T07:57:36.025Z,27.30
2018-07-16T07:59:12.385Z,27.30
2018-07-16T08:00:53.517Z,27.30
2018-07-16T08:02:33.756Z,27.30
2018-07-16T08:04:11.854Z,27.70
2018-07-16T08:06:08.735Z,27.90
2018-07-16T08:07:46.716Z,28.90
2018-07-16T08:09:31.021Z,29.50
2018-07-16T08:11:08.587Z,29.80
2018-07-16T08:12:44.937Z,30.10
2018-07-16T08:14:22.048Z,30.40
2018-07-16T08:15:58.618Z,30.50
2018-07-16T08:19:16.232Z,30.80
2018-07-16T08:20:59.710Z,30.80
2018-07-16T08:22:56.416Z,29.40
2018-07-16T08:24:33.382Z,28.40
2018-07-16T08:26:12.605Z,28.20
2018-07-16T08:27:50.377Z,27.80
2018-07-16T08:29:28.547Z,27.60
2018-07-16T08:32:45.348Z,28.40
2018-07-16T08:34:23.209Z,29.20
2018-07-16T08:35:59.624Z,29.90
2018-07-16T08:37:36.350Z,30.50
2018-07-16T08:39:13.448Z,30.70
2018-07-16T08:40:49.839Z,30.70
2018-07-16T08:42:26.763Z,30.00
2018-07-16T08:44:04.990Z,29.70
2018-07-16T08:45:41.552Z,30.30
2018-07-16T08:47:18.250Z,30.80
2018-07-16T08:48:56.469Z,30.90
2018-07-16T08:50:47.165Z,31.30
2018-07-16T08:52:23.569Z,31.30
2018-07-16T08:54:00.335Z,31.00
2018-07-16T08:55:41.280Z,30.90
2018-07-16T08:57:20.476Z,30.90
2018-07-16T08:58:57.084Z,30.70
2018-07-16T09:00:35.847Z,30.40
2018-07-16T09:02:12.528Z,30.30
2018-07-16T09:03:50.675Z,30.30
2018-07-16T09:05:28.029Z,30.40
2018-07-16T09:07:05.293Z,30.60
2018-07-16T09:08:44.662Z,31.00
2018-07-16T09:10:21.444Z,31.30
2018-07-16T09:13:36.666Z,31.00
2018-07-16T09:15:16.050Z,31.20
2018-07-16T09:16:55.622Z,31.30
2018-07-16T09:18:33.430Z,31.50
2018-07-16T09:20:13.337Z,31.50
2018-07-16T09:21:58.655Z,31.40
2018-07-16T09:23:36.677Z,31.30
2018-07-16T09:25:14.915Z,31.10
2018-07-16T09:26:55.562Z,30.40
2018-07-16T09:28:32.377Z,30.20
2018-07-16T09:30:09.718Z,30.40
2018-07-16T09:33:50.794Z,31.00
2018-07-16T09:35:33.346Z,31.10
2018-07-16T09:37:10.376Z,29.70
2018-07-16T09:38:52.854Z,29.60
2018-07-16T09:40:42.846Z,29.60
2018-07-16T09:42:24.146Z,30.20
2018-07-16T09:44:01.196Z,30.90
2018-07-16T09:45:39.685Z,31.20
2018-07-16T09:47:18.996Z,31.30
2018-07-16T09:48:55.521Z,31.20
2018-07-16T09:50:33.568Z,31.00
2018-07-16T09:52:14.421Z,30.80
2018-07-16T09:53:54.513Z,29.90
2018-07-16T09:55:33.451Z,29.30
2018-07-16T09:57:10.599Z,29.20
2018-07-16T09:58:48.410Z,28.90
2018-07-16T10:00:30.926Z,28.50
2018-07-16T10:02:22.358Z,28.50
2018-07-16T10:03:58.662Z,28.90
2018-07-16T10:05:38.320Z,29.50
2018-07-16T10:07:20.329Z,29.80
2018-07-16T10:08:57.427Z,29.70
2018-07-16T10:10:38.619Z,30.00
2018-07-16T10:12:15.747Z,29.80
2018-07-16T10:13:53.851Z,29.90
2018-07-16T10:15:33.836Z,29.90
2018-07-16T10:17:11.600Z,30.20
2018-07-16T10:18:49.044Z,30.80
2018-07-16T10:20:26.574Z,31.10
2018-07-16T10:22:04.194Z,31.20
2018-07-16T10:23:40.658Z,31.00
2018-07-16T10:25:19.543Z,30.80
2018-07-16T10:28:44.437Z,30.60
2018-07-16T10:30:25.561Z,30.80
2018-07-16T10:32:03.862Z,30.70
2018-07-16T10:33:41.048Z,30.90
2018-07-16T10:35:18.671Z,31.20
2018-07-16T10:36:55.364Z,31.30
2018-07-16T10:38:32.497Z,31.30
2018-07-16T10:40:13.715Z,31.20
2018-07-16T10:42:02.155Z,31.10
2018-07-16T10:43:46.156Z,30.70
2018-07-16T10:45:28.023Z,30.50
2018-07-16T10:47:08.217Z,30.40
2018-07-16T10:48:46.377Z,30.50
2018-07-16T10:50:24.410Z,30.80
2018-07-16T10:52:03.514Z,30.90
2018-07-16T10:55:24.586Z,30.60
2018-07-16T10:57:11.643Z,29.70
2018-07-16T10:58:48.381Z,29.60
2018-07-16T11:00:28.531Z,30.20
2018-07-16T11:02:05.627Z,30.40
2018-07-16T11:03:43.265Z,30.40
2018-07-16T11:05:20.692Z,30.90
2018-07-16T11:06:57.237Z,31.00
2018-07-16T11:08:40.200Z,31.10
2018-07-16T11:10:17.363Z,31.20
2018-07-16T11:11:53.812Z,31.40
2018-07-16T11:13:32.195Z,31.50
2018-07-16T11:15:09.979Z,31.50
2018-07-16T11:16:47.800Z,30.50
2018-07-16T11:18:24.426Z,30.80
2018-07-16T11:20:01.946Z,31.00
2018-07-16T11:21:41.298Z,31.40
2018-07-16T11:23:20.436Z,31.40
2018-07-16T11:25:00.358Z,30.70
2018-07-16T11:26:43.155Z,30.80
2018-07-16T11:28:23.593Z,31.00
2018-07-16T11:30:07.785Z,30.80
2018-07-16T11:33:23.576Z,31.20
2018-07-16T11:35:02.254Z,31.20
2018-07-16T11:36:38.651Z,31.30
2018-07-16T11:38:15.284Z,31.30
2018-07-16T11:39:59.429Z,31.30
2018-07-16T11:41:39.062Z,31.30
2018-07-16T11:43:15.505Z,31.30
2018-07-16T11:44:55.367Z,31.30
2018-07-16T11:46:34.811Z,31.30
2018-07-16T11:49:49.736Z,31.50
2018-07-16T11:51:37.191Z,31.60
2018-07-16T11:53:15.152Z,31.60
2018-07-16T11:54:55.915Z,31.90
2018-07-16T11:56:33.469Z,32.00
2018-07-16T11:58:09.862Z,32.10
2018-07-16T11:59:47.656Z,31.90
2018-07-16T12:01:25.443Z,31.70
2018-07-16T12:03:03.350Z,31.60
2018-07-16T12:04:40.691Z,30.90
2018-07-16T12:06:23.770Z,30.70
2018-07-16T12:08:00.077Z,30.90
2018-07-16T12:09:36.535Z,30.70
2018-07-16T12:11:14.628Z,29.90
2018-07-16T12:12:53.056Z,29.70
2018-07-16T12:14:30.242Z,29.70
2018-07-16T12:19:25.644Z,30.80
2018-07-16T12:21:06.457Z,31.10
2018-07-16T12:22:44.493Z,30.50
2018-07-16T12:24:20.894Z,30.50
2018-07-16T12:25:59.668Z,31.00
2018-07-16T12:27:38.440Z,31.30
2018-07-16T12:29:16.540Z,31.50
2018-07-16T12:30:58.300Z,31.50
2018-07-16T12:32:43.435Z,31.50
2018-07-16T12:34:25.261Z,31.70
2018-07-16T12:36:02.655Z,31.90
2018-07-16T12:37:40.868Z,31.90
2018-07-16T12:39:22.362Z,31.80
2018-07-16T12:41:04.696Z,31.60
2018-07-16T12:42:43.463Z,31.10
2018-07-16T12:44:22.925Z,30.60
2018-07-16T12:46:02.452Z,30.60
2018-07-16T12:47:51.884Z,31.10
2018-07-16T12:49:28.406Z,31.40
2018-07-16T12:51:06.777Z,31.40
2018-07-16T12:52:43.479Z,31.50
2018-07-16T12:54:19.688Z,31.50
2018-07-16T12:55:56.735Z,31.80
2018-07-16T12:57:33.464Z,31.60
2018-07-16T12:59:11.791Z,31.30
2018-07-16T13:00:51.737Z,31.00
2018-07-16T13:04:16.107Z,30.80
2018-07-16T13:05:53.897Z,31.20
2018-07-16T13:07:32.768Z,31.30
2018-07-16T13:09:10.028Z,31.40
2018-07-16T13:10:49.424Z,30.60
2018-07-16T13:12:29.719Z,30.50
2018-07-16T13:14:07.611Z,30.80
2018-07-16T13:15:51.241Z,30.80
2018-07-16T13:17:28.506Z,30.30
2018-07-16T13:19:06.390Z,29.80
2018-07-16T13:20:46.469Z,29.70
2018-07-16T13:22:24.801Z,29.60
2018-07-16T13:24:01.802Z,29.60
2018-07-16T13:25:39.405Z,29.60
2018-07-16T13:27:18.573Z,29.80
2018-07-16T13:28:57.204Z,30.10
2018-07-16T13:30:34.521Z,30.30
2018-07-16T13:32:12.819Z,30.90
2018-07-16T13:33:49.181Z,31.00
2018-07-16T13:35:26.549Z,31.20
2018-07-16T13:37:05.535Z,31.40
2018-07-16T13:38:48.529Z,31.20
2018-07-16T13:40:32.738Z,31.10
2018-07-16T13:43:55.051Z,30.60
2018-07-16T13:45:34.758Z,31.00
2018-07-16T13:47:12.037Z,31.40
2018-07-16T13:48:50.388Z,31.60
2018-07-16T13:50:58.510Z,31.70
2018-07-16T13:54:43.267Z,31.70
2018-07-16T13:57:59.136Z,31.70
2018-07-16T13:59:35.675Z,31.80
2018-07-16T14:01:13.887Z,31.80
2018-07-16T14:03:04.007Z,31.60
2018-07-16T14:04:42.218Z,31.70
2018-07-16T14:06:21.103Z,32.00
2018-07-16T14:08:04.548Z,32.20
2018-07-16T14:09:45.676Z,32.10
2018-07-16T14:11:23.827Z,31.90
2018-07-16T14:13:01.434Z,31.20
2018-07-16T14:14:38.442Z,30.40
2018-07-16T14:16:15.676Z,30.50
2018-07-16T14:17:52.943Z,30.50
2018-07-16T14:19:29.351Z,30.50
2018-07-16T14:21:07.354Z,31.00
2018-07-16T14:22:44.666Z,31.50
2018-07-16T14:26:06.788Z,31.80
2018-07-16T14:27:44.016Z,31.60
2018-07-16T14:31:00.201Z,31.70
2018-07-16T14:32:41.340Z,31.80
2018-07-16T14:34:19.467Z,31.70
2018-07-16T14:35:58.686Z,31.60
2018-07-16T14:37:35.233Z,31.70
2018-07-16T14:39:12.119Z,31.80
2018-07-16T14:40:49.123Z,31.70
2018-07-16T14:42:27.238Z,31.90
2018-07-16T14:44:05.727Z,31.80
2018-07-16T14:45:43.202Z,32.00
2018-07-16T14:47:20.062Z,32.10
2018-07-16T14:48:57.191Z,32.20
2018-07-16T14:50:36.957Z,32.60
2018-07-16T14:52:13.735Z,32.60
2018-07-16T14:53:50.175Z,32.50
2018-07-16T14:55:27.290Z,32.40
2018-07-16T14:57:03.970Z,32.60
2018-07-16T14:58:42.544Z,32.60
2018-07-16T15:00:22.252Z,32.60
2018-07-16T15:02:00.170Z,32.50
2018-07-16T15:03:37.535Z,32.30
2018-07-16T15:05:14.177Z,32.20
2018-07-16T15:07:07.547Z,32.20
2018-07-16T15:08:46.423Z,32.40
2018-07-16T15:10:22.904Z,32.60
2018-07-16T15:12:01.402Z,32.60
2018-07-16T15:13:40.288Z,32.60
2018-07-16T15:15:21.836Z,32.60
2018-07-16T15:18:43.264Z,32.10
2018-07-16T15:20:23.282Z,32.30
2018-07-16T15:22:03.540Z,32.40
2018-07-16T15:23:42.245Z,32.50
2018-07-16T15:25:19.677Z,32.30
2018-07-16T15:26:58.502Z,32.20
2018-07-16T15:28:37.349Z,32.20
2018-07-16T15:30:19.311Z,32.20
2018-07-16T15:31:56.627Z,32.30
2018-07-16T15:33:39.801Z,31.90
2018-07-16T15:35:21.535Z,31.90
2018-07-16T15:37:04.230Z,32.30
2018-07-16T15:38:44.346Z,32.50
2018-07-16T15:42:05.131Z,32.30
2018-07-16T15:43:47.465Z,32.20
2018-07-16T15:48:42.007Z,31.90
2018-07-16T15:50:18.752Z,31.80
2018-07-16T15:51:56.507Z,31.80
2018-07-16T15:53:32.881Z,31.90
2018-07-16T15:55:11.049Z,31.80
2018-07-16T15:56:47.376Z,31.80
2018-07-16T15:58:24.411Z,31.60
2018-07-16T16:00:01.270Z,31.70
2018-07-16T16:03:22.644Z,31.70
2018-07-16T16:04:59.821Z,31.80
2018-07-16T16:06:36.250Z,31.90
2018-07-16T16:08:12.683Z,32.10
2018-07-16T16:09:49.877Z,32.40
2018-07-16T16:11:28.486Z,32.60
2018-07-16T16:13:06.580Z,32.70
2018-07-16T16:14:44.055Z,32.60
2018-07-16T16:16:22.663Z,32.50
2018-07-16T16:17:59.510Z,32.50
2018-07-16T16:19:36.084Z,32.60
2018-07-16T16:21:13.167Z,32.50
2018-07-16T16:22:49.627Z,32.50
2018-07-16T16:24:30.980Z,32.50
2018-07-16T16:26:08.714Z,32.20
2018-07-16T16:27:46.775Z,31.90
2018-07-16T16:29:24.338Z,32.30
2018-07-16T16:31:03.248Z,32.70
2018-07-16T16:32:44.794Z,32.80
2018-07-16T16:34:29.935Z,32.80
2018-07-16T16:36:14.556Z,32.80
2018-07-16T16:37:54.552Z,32.70
2018-07-16T16:39:33.545Z,32.50
2018-07-16T16:41:15.377Z,32.10
2018-07-16T16:42:55.237Z,31.50
2018-07-16T16:44:38.202Z,31.30
2018-07-16T16:46:17.859Z,31.50
2018-07-16T16:47:56.079Z,31.50
2018-07-16T16:49:34.161Z,31.10
2018-07-16T16:51:15.510Z,31.00
2018-07-16T16:52:53.769Z,30.80
2018-07-16T16:54:33.909Z,30.70
2018-07-16T16:56:12.545Z,30.60
2018-07-16T16:59:38.294Z,31.50
2018-07-16T17:01:20.461Z,31.80
2018-07-16T17:02:59.448Z,31.80
2018-07-16T17:04:36.836Z,31.80
2018-07-16T17:06:16.844Z,31.80
2018-07-16T17:07:53.881Z,31.70
2018-07-16T17:09:30.389Z,31.80
2018-07-16T17:11:12.397Z,31.40
2018-07-16T17:12:49.444Z,31.50
2018-07-16T17:14:26.696Z,31.60
2018-07-16T17:16:07.713Z,31.70
2018-07-16T17:17:44.801Z,31.80
2018-07-16T17:19:21.226Z,31.80
2018-07-16T17:20:59.335Z,31.70
2018-07-16T17:22:35.585Z,31.60
2018-07-16T17:24:12.835Z,31.50
2018-07-16T17:25:49.300Z,30.90
2018-07-16T17:27:25.692Z,30.70
2018-07-16T17:29:02.952Z,30.80
2018-07-16T17:30:40.484Z,30.90
2018-07-16T17:32:17.981Z,31.30
2018-07-16T17:33:58.981Z,31.30
2018-07-16T17:35:35.413Z,31.60
2018-07-16T17:37:14.577Z,31.90
2018-07-16T17:38:52.611Z,31.70
2018-07-16T17:40:32.299Z,31.40
2018-07-16T17:42:10.418Z,30.90
2018-07-16T17:43:52.011Z,31.20
2018-07-16T17:45:38.307Z,31.30
2018-07-16T17:47:19.177Z,31.40
2018-07-16T17:48:59.588Z,31.30
2018-07-16T17:50:37.584Z,31.20
2018-07-16T17:52:20.955Z,31.40
2018-07-16T17:54:02.443Z,31.20
2018-07-16T17:55:43.242Z,31.40
2018-07-16T17:57:24.488Z,31.70
2018-07-16T17:59:02.015Z,31.90
2018-07-16T18:00:42.693Z,32.00
2018-07-16T18:02:24.149Z,31.90
2018-07-16T18:04:01.815Z,31.70
2018-07-16T18:05:41.713Z,31.50
2018-07-16T18:07:24.092Z,31.30
2018-07-16T18:09:06.019Z,31.20
2018-07-16T18:10:44.685Z,31.50
2018-07-16T18:12:22.543Z,31.70
2018-07-16T18:14:00.554Z,32.00
2018-07-16T18:15:41.579Z,32.00
2018-07-16T18:17:20.120Z,32.00
2018-07-16T18:18:58.499Z,32.00
2018-07-16T18:20:38.582Z,32.10
2018-07-16T18:22:15.581Z,32.10
2018-07-16T18:23:51.825Z,32.20
2018-07-16T18:25:30.501Z,32.20
2018-07-16T18:27:09.721Z,32.40
2018-07-16T18:28:49.960Z,32.20
2018-07-16T18:30:30.430Z,31.90
2018-07-16T18:32:09.474Z,31.80
2018-07-16T18:33:49.601Z,31.70
2018-07-16T18:35:30.617Z,31.50
2018-07-16T18:37:08.918Z,31.60
2018-07-16T18:38:46.457Z,31.60
2018-07-16T18:40:25.217Z,31.30
2018-07-16T18:42:05.660Z,31.10
2018-07-16T18:43:44.574Z,31.30
2018-07-16T18:45:25.533Z,31.20
2018-07-16T18:47:02.842Z,31.30
2018-07-16T18:48:40.057Z,31.20
2018-07-16T18:50:19.556Z,31.30
2018-07-16T18:52:02.456Z,31.30
2018-07-16T18:53:54.535Z,31.30
2018-07-16T18:58:49.612Z,31.10
2018-07-16T19:00:30.270Z,31.00
2018-07-16T19:02:10.533Z,31.10
2018-07-16T19:03:49.370Z,31.20
2018-07-16T19:05:26.710Z,31.20
2018-07-16T19:07:03.618Z,31.20
2018-07-16T19:08:41.469Z,31.10
2018-07-16T19:14:29.271Z,31.20
2018-07-16T19:16:16.552Z,31.20
2018-07-16T19:18:04.476Z,31.00
2018-07-16T19:19:48.287Z,30.90
2018-07-16T19:21:26.392Z,30.60
2018-07-16T19:23:08.105Z,30.50
2018-07-16T19:24:45.882Z,30.50
2018-07-16T19:26:25.653Z,30.60
2018-07-16T19:28:02.049Z,30.60
2018-07-16T19:29:49.055Z,30.60
2018-07-16T19:31:28.054Z,30.70
2018-07-16T19:33:11.183Z,30.80
2018-07-16T19:34:52.674Z,30.80
2018-07-16T19:36:31.588Z,31.00
2018-07-16T19:38:13.959Z,31.00
2018-07-16T19:39:52.751Z,31.10
2018-07-16T19:41:30.262Z,31.00
2018-07-16T19:43:07.403Z,31.00
2018-07-16T19:44:46.426Z,31.10
2018-07-16T19:46:24.152Z,31.10
2018-07-16T19:48:06.522Z,31.00
2018-07-16T19:49:47.839Z,31.00
2018-07-16T19:51:26.573Z,30.90
2018-07-16T19:53:08.385Z,30.80
2018-07-16T19:54:46.099Z,30.70
2018-07-16T19:56:24.600Z,30.50
2018-07-16T19:58:05.334Z,30.40
2018-07-16T19:59:45.504Z,30.30
2018-07-16T20:03:07.619Z,30.40
2018-07-16T20:04:44.429Z,30.50
2018-07-16T20:06:28.175Z,30.50
2018-07-16T20:08:07.559Z,30.40
2018-07-16T20:09:45.509Z,30.50
2018-07-16T20:11:24.222Z,30.40
2018-07-16T20:13:06.564Z,30.50
2018-07-16T20:14:45.550Z,30.20
2018-07-16T20:16:22.308Z,30.10
2018-07-16T20:18:03.127Z,30.10
2018-07-16T20:19:47.724Z,30.10
2018-07-16T20:21:24.103Z,30.00
2018-07-16T20:23:09.646Z,29.90
2018-07-16T20:24:48.055Z,30.00
2018-07-16T20:26:24.981Z,29.90
2018-07-16T20:28:04.955Z,29.90
2018-07-16T20:29:42.753Z,30.00
2018-07-16T20:31:20.952Z,29.90
2018-07-16T20:32:58.152Z,29.90
2018-07-16T20:34:35.175Z,29.90
2018-07-16T20:36:13.006Z,29.70
2018-07-16T20:37:49.994Z,29.70
2018-07-16T20:39:30.334Z,29.60
2018-07-16T20:41:09.299Z,29.60
2018-07-16T20:42:48.642Z,29.60
2018-07-16T20:45:32.776Z,29.60
2018-07-16T20:47:10.200Z,29.70
2018-07-16T20:48:48.560Z,29.60
2018-07-16T20:50:29.240Z,29.60
2018-07-16T20:52:07.975Z,29.60
2018-07-16T20:53:44.924Z,29.70
2018-07-16T20:55:21.855Z,29.60
2018-07-16T20:57:01.622Z,29.60
2018-07-16T20:58:39.566Z,29.50
2018-07-16T21:00:20.949Z,29.40
2018-07-16T21:01:58.894Z,29.30
2018-07-16T21:03:35.536Z,29.20
2018-07-16T21:05:14.151Z,29.10
2018-07-16T21:06:54.378Z,28.90
2018-07-16T21:08:35.972Z,28.70
2018-07-16T21:10:15.276Z,28.60
2018-07-16T21:12:03.117Z,28.50
2018-07-16T21:13:49.413Z,28.50
2018-07-16T21:15:32.717Z,28.40
2018-07-16T21:17:16.638Z,28.40
2018-07-16T21:18:58.378Z,28.30
2018-07-16T21:20:42.477Z,28.20
2018-07-16T21:22:20.727Z,28.10
2018-07-16T21:23:59.780Z,28.20
2018-07-16T21:25:38.663Z,28.20
2018-07-16T21:27:18.806Z,28.20
2018-07-16T21:28:58.341Z,28.20
2018-07-16T21:30:42.206Z,28.20
2018-07-16T21:32:25.524Z,28.20
2018-07-16T21:34:05.234Z,28.40
2018-07-16T21:35:46.326Z,28.60
2018-07-16T21:37:25.026Z,28.50
2018-07-16T21:39:01.870Z,28.50
2018-07-16T21:40:39.346Z,28.30
2018-07-16T21:42:17.173Z,28.40
2018-07-16T21:43:57.410Z,28.30
2018-07-16T21:45:34.937Z,28.20
2018-07-16T21:47:15.167Z,28.30
2018-07-16T21:48:51.605Z,28.30
2018-07-16T21:50:31.983Z,28.40
2018-07-16T21:52:13.244Z,28.40
2018-07-16T21:53:52.044Z,28.40
2018-07-16T21:55:32.885Z,28.40
2018-07-16T21:57:09.685Z,28.30
2018-07-16T21:58:46.547Z,28.20
2018-07-16T22:00:34.083Z,28.10
2018-07-16T22:02:13.744Z,28.00
2018-07-16T22:03:53.296Z,28.00
2018-07-16T22:05:31.286Z,27.90
2018-07-16T22:07:13.504Z,27.90
2018-07-16T22:08:55.836Z,27.80
2018-07-16T22:10:42.316Z,27.80
2018-07-16T22:12:27.439Z,27.70
2018-07-16T22:14:29.491Z,27.50
2018-07-16T22:17:56.050Z,26.90
2018-07-16T22:19:39.566Z,27.00
2018-07-16T22:23:04.013Z,27.20
2018-07-16T22:24:44.341Z,27.20
2018-07-16T22:26:27.279Z,27.20
2018-07-16T22:28:11.986Z,27.20
2018-07-16T22:31:51.121Z,27.30
2018-07-16T22:33:32.610Z,27.40